createdAt,value
2022-08-19T00:01:31.380Z,4.68
2022-08-19T00:04:03.521Z,4.65
2022-08-19T00:06:30.942Z,4.65
2022-08-19T00:08:58.676Z,5.00
2022-08-19T00:11:27.019Z,4.88
2022-08-19T00:13:54.446Z,5.53
2022-08-19T00:16:26.125Z,4.88
2022-08-19T00:18:54.622Z,4.75
2022-08-19T00:21:21.489Z,5.18
2022-08-19T00:23:48.714Z,5.03
2022-08-19T00:26:15.486Z,5.40
2022-08-19T00:28:42.295Z,5.03
2022-08-19T00:31:09.983Z,5.15
2022-08-19T00:33:36.987Z,4.85
2022-08-19T00:36:07.388Z,4.63
2022-08-19T00:38:38.029Z,5.07
2022-08-19T00:41:06.816Z,5.05
2022-08-19T00:43:33.787Z,5.32
2022-08-19T00:46:00.889Z,5.40
2022-08-19T00:48:27.578Z,5.20
2022-08-19T00:50:55.345Z,5.15
2022-08-19T00:53:24.528Z,5.30
2022-08-19T00:55:53.101Z,5.60
2022-08-19T00:58:21.361Z,5.35
2022-08-19T01:00:49.157Z,5.38
2022-08-19T01:03:19.195Z,5.40
2022-08-19T01:05:47.233Z,5.47
2022-08-19T01:08:16.385Z,5.22
2022-08-19T01:10:47.826Z,5.65
2022-08-19T01:13:20.634Z,5.20
2022-08-19T01:15:51.329Z,5.20
2022-08-19T01:18:19.630Z,5.53
2022-08-19T01:20:46.512Z,5.10
2022-08-19T01:23:13.758Z,4.80
2022-08-19T01:25:45.808Z,5.57
2022-08-19T01:28:40.189Z,5.53
2022-08-19T01:31:26.889Z,5.45
2022-08-19T01:33:55.830Z,5.45
2022-08-19T01:36:38.985Z,5.20
2022-08-19T01:39:13.408Z,5.50
2022-08-19T01:41:40.410Z,5.63
2022-08-19T01:44:18.322Z,5.90
2022-08-19T01:46:46.967Z,5.80
2022-08-19T01:49:13.637Z,5.57
2022-08-19T01:51:40.627Z,5.72
2022-08-19T01:54:11.665Z,5.80
2022-08-19T01:56:39.354Z,5.47
2022-08-19T01:59:11.608Z,5.50
2022-08-19T02:01:38.372Z,5.90
2022-08-19T02:04:06.145Z,5.77
2022-08-19T02:06:34.193Z,5.60
2022-08-19T02:09:01.185Z,5.70
2022-08-19T02:11:36.425Z,5.75
2022-08-19T02:14:06.912Z,6.10
2022-08-19T02:16:34.183Z,5.72
2022-08-19T02:19:03.687Z,6.03
2022-08-19T02:21:31.445Z,5.50
2022-08-19T02:23:58.692Z,5.70
2022-08-19T02:26:27.506Z,5.72
2022-08-19T02:28:55.612Z,5.72
2022-08-19T02:31:25.651Z,5.60
2022-08-19T02:33:56.801Z,6.33
2022-08-19T02:36:25.504Z,6.03
2022-08-19T02:38:54.844Z,6.33
2022-08-19T02:41:34.090Z,6.57
2022-08-19T02:44:26.655Z,6.90
2022-08-19T02:46:51.680Z,6.50
2022-08-19T02:49:19.674Z,6.93
2022-08-19T02:51:47.050Z,7.37
2022-08-19T02:54:15.552Z,7.60
2022-08-19T02:56:44.116Z,7.40
2022-08-19T02:59:13.044Z,7.50
2022-08-19T03:01:42.440Z,8.03
2022-08-19T03:04:13.665Z,7.80
2022-08-19T03:06:42.345Z,8.50
2022-08-19T03:09:09.640Z,7.93
2022-08-19T03:11:36.473Z,7.20
2022-08-19T03:14:04.742Z,7.07
2022-08-19T03:16:34.199Z,7.33
2022-08-19T03:19:01.942Z,10.10
2022-08-19T03:21:31.462Z,10.43
2022-08-19T03:24:00.883Z,15.00
2022-08-19T03:26:28.137Z,13.83
2022-08-19T03:28:58.380Z,10.60
2022-08-19T03:31:43.583Z,9.53
2022-08-19T03:34:15.873Z,8.37
2022-08-19T03:36:42.737Z,8.80
2022-08-19T03:39:11.272Z,9.03
2022-08-19T03:41:44.992Z,8.50
2022-08-19T03:44:18.041Z,8.97
2022-08-19T03:46:46.509Z,8.97
2022-08-19T03:49:14.389Z,8.83
2022-08-19T03:51:42.562Z,9.50
2022-08-19T03:54:11.703Z,8.57
2022-08-19T03:56:40.369Z,8.67
2022-08-19T03:59:11.859Z,9.32
2022-08-19T04:01:38.588Z,9.80
2022-08-19T04:04:05.481Z,9.60
2022-08-19T04:06:39.548Z,12.93
2022-08-19T04:09:09.555Z,11.37
2022-08-19T04:11:44.470Z,13.47
2022-08-19T04:14:23.763Z,13.37
2022-08-19T04:16:51.339Z,12.40
2022-08-19T04:19:19.139Z,12.57
2022-08-19T04:21:51.078Z,11.97
2022-08-19T04:24:18.757Z,12.23
2022-08-19T04:26:45.929Z,12.40
2022-08-19T04:29:15.976Z,11.67
2022-08-19T04:31:44.479Z,12.53
2022-08-19T04:34:13.013Z,14.23
2022-08-19T04:36:42.359Z,15.23
2022-08-19T04:39:12.224Z,16.23
2022-08-19T04:41:57.464Z,16.87
2022-08-19T04:44:24.195Z,18.13
2022-08-19T04:46:52.064Z,15.07
2022-08-19T04:49:26.545Z,15.30
2022-08-19T04:51:55.329Z,16.10
2022-08-19T04:54:37.796Z,14.57
2022-08-19T04:57:08.182Z,15.20
2022-08-19T04:59:35.665Z,15.13
2022-08-19T05:02:02.510Z,15.07
2022-08-19T05:04:33.065Z,15.40
2022-08-19T05:07:02.179Z,16.10
2022-08-19T05:09:32.897Z,16.13
2022-08-19T05:12:16.879Z,16.27
2022-08-19T05:14:44.378Z,12.77
2022-08-19T05:17:27.226Z,12.60
2022-08-19T05:20:14.583Z,10.37
2022-08-19T05:22:42.309Z,11.80
2022-08-19T05:25:13.822Z,15.10
2022-08-19T05:27:42.032Z,18.97
2022-08-19T05:30:09.634Z,21.43
2022-08-19T05:32:36.370Z,23.03
2022-08-19T05:35:03.425Z,25.97
2022-08-19T05:37:30.184Z,24.50
2022-08-19T05:39:56.966Z,25.40
2022-08-19T05:42:24.250Z,26.23
2022-08-19T05:44:51.854Z,27.33
2022-08-19T05:47:20.811Z,28.30
2022-08-19T05:49:48.280Z,28.70
2022-08-19T05:52:16.990Z,29.53
2022-08-19T05:54:51.296Z,30.73
2022-08-19T05:57:19.363Z,29.93
2022-08-19T05:59:53.065Z,30.57
2022-08-19T06:02:26.046Z,27.73
2022-08-19T06:04:52.815Z,27.20
2022-08-19T06:07:20.576Z,28.07
2022-08-19T06:09:59.759Z,27.67
2022-08-19T06:12:29.764Z,30.40
2022-08-19T06:15:01.229Z,30.43
2022-08-19T06:17:31.491Z,31.17
2022-08-19T06:19:59.778Z,31.77
2022-08-19T06:22:26.974Z,32.17
2022-08-19T06:24:55.178Z,33.00
2022-08-19T06:27:22.500Z,33.07
2022-08-19T06:29:49.218Z,33.57
2022-08-19T06:32:17.447Z,33.17
2022-08-19T06:34:44.217Z,35.77
2022-08-19T06:37:12.482Z,35.10
2022-08-19T06:39:40.858Z,33.00
2022-08-19T06:42:10.964Z,33.80
2022-08-19T06:44:42.601Z,33.20
2022-08-19T06:47:14.685Z,33.33
2022-08-19T06:49:42.709Z,35.07
2022-08-19T06:52:13.841Z,35.37
2022-08-19T06:54:55.557Z,37.40
2022-08-19T06:57:24.411Z,35.43
2022-08-19T06:59:51.293Z,38.80
2022-08-19T07:05:06.689Z,34.83
2022-08-19T07:07:33.716Z,33.83
2022-08-19T07:10:01.968Z,33.70
2022-08-19T07:12:38.033Z,34.33
2022-08-19T07:15:09.848Z,31.70
2022-08-19T07:17:38.426Z,34.80
2022-08-19T07:20:09.642Z,34.87
2022-08-19T07:22:38.603Z,33.20
2022-08-19T07:25:07.385Z,33.20
2022-08-19T07:27:35.047Z,31.07
2022-08-19T07:30:02.341Z,30.93
2022-08-19T07:32:29.034Z,29.43
2022-08-19T07:34:57.017Z,29.83
2022-08-19T07:37:32.542Z,29.93
2022-08-19T07:40:00.301Z,28.97
2022-08-19T07:42:27.780Z,27.43
2022-08-19T07:44:54.449Z,26.80
2022-08-19T07:47:49.838Z,28.10
2022-08-19T07:50:10.106Z,26.53
2022-08-19T07:52:39.651Z,26.80
2022-08-19T07:55:40.674Z,25.80
2022-08-19T07:57:56.110Z,25.93
2022-08-19T08:00:24.308Z,25.10
2022-08-19T08:02:52.184Z,23.87
2022-08-19T08:05:43.432Z,23.50
2022-08-19T08:08:29.883Z,24.17
2022-08-19T08:10:57.473Z,22.70
2022-08-19T08:13:25.362Z,21.00
2022-08-19T08:15:55.925Z,17.50
2022-08-19T08:18:27.642Z,19.20
2022-08-19T08:20:57.868Z,19.63
2022-08-19T08:23:28.014Z,18.53
2022-08-19T08:25:58.253Z,17.63
2022-08-19T08:28:26.169Z,16.93
2022-08-19T08:30:56.678Z,17.10
2022-08-19T08:33:32.769Z,18.00
2022-08-19T08:36:12.011Z,19.77
2022-08-19T08:38:40.516Z,16.97
2022-08-19T08:41:34.502Z,18.87
2022-08-19T08:44:02.170Z,18.33
2022-08-19T08:46:41.181Z,18.00
2022-08-19T08:49:09.967Z,19.97
2022-08-19T08:51:59.329Z,18.33
2022-08-19T08:54:34.760Z,16.83
2022-08-19T08:57:05.754Z,17.20
2022-08-19T08:59:36.785Z,15.85
2022-08-19T09:02:03.787Z,13.70
2022-08-19T09:04:30.598Z,12.98
2022-08-19T09:07:00.388Z,15.30
2022-08-19T09:09:42.163Z,15.00
2022-08-19T09:12:27.026Z,18.20
2022-08-19T09:15:05.330Z,18.17
2022-08-19T09:17:34.552Z,16.60
2022-08-19T09:20:32.145Z,16.52
2022-08-19T09:22:59.654Z,20.42
2022-08-19T09:25:29.485Z,20.25
2022-08-19T09:28:03.063Z,20.05
2022-08-19T09:30:36.165Z,18.10
2022-08-19T09:33:02.833Z,18.35
2022-08-19T09:35:30.995Z,16.75
2022-08-19T09:37:59.473Z,17.75
2022-08-19T09:40:31.916Z,18.15
2022-08-19T09:43:11.455Z,17.52
2022-08-19T09:45:40.413Z,17.67
2022-08-19T09:48:07.344Z,18.65
2022-08-19T09:50:39.506Z,19.65
2022-08-19T09:53:19.397Z,19.90
2022-08-19T09:55:46.149Z,21.83
2022-08-19T09:58:13.021Z,20.42
2022-08-19T10:00:39.887Z,21.05
2022-08-19T10:03:07.113Z,20.08
2022-08-19T10:05:50.477Z,19.98
2022-08-19T10:08:40.963Z,19.20
2022-08-19T10:11:28.449Z,19.08
2022-08-19T10:14:06.958Z,18.20
2022-08-19T10:16:33.927Z,18.58
2022-08-19T10:19:10.458Z,18.75
2022-08-19T10:21:37.346Z,18.08
2022-08-19T10:24:07.324Z,18.17
2022-08-19T10:26:38.228Z,18.58
2022-08-19T10:29:06.150Z,18.05
2022-08-19T10:32:00.737Z,16.70
2022-08-19T10:34:27.845Z,17.38
2022-08-19T10:37:00.493Z,17.63
2022-08-19T10:39:31.285Z,15.43
2022-08-19T10:41:58.948Z,15.60
2022-08-19T10:44:32.182Z,15.43
2022-08-19T10:47:00.079Z,15.05
2022-08-19T10:49:26.847Z,15.30
2022-08-19T10:52:18.535Z,13.77
2022-08-19T10:55:08.627Z,11.68
2022-08-19T10:57:59.427Z,13.52
2022-08-19T11:00:24.337Z,13.63
2022-08-19T11:02:51.759Z,12.10
2022-08-19T11:05:19.217Z,12.20
2022-08-19T11:07:46.149Z,11.35
2022-08-19T11:10:19.470Z,11.00
2022-08-19T11:12:48.208Z,10.65
2022-08-19T11:15:15.357Z,9.88
2022-08-19T11:17:42.632Z,10.00
2022-08-19T11:20:10.108Z,9.75
2022-08-19T11:22:41.675Z,9.80
2022-08-19T11:25:12.218Z,9.23
2022-08-19T11:27:43.961Z,9.45
2022-08-19T11:30:13.011Z,8.85
2022-08-19T11:32:47.127Z,9.90
2022-08-19T11:35:15.536Z,9.23
2022-08-19T11:37:42.209Z,9.50
2022-08-19T11:40:09.957Z,8.55
2022-08-19T11:42:55.320Z,8.20
2022-08-19T11:45:22.567Z,7.97
2022-08-19T11:47:49.519Z,8.55
2022-08-19T11:50:17.474Z,8.30
2022-08-19T11:52:45.710Z,7.93
2022-08-19T11:55:14.234Z,7.53
2022-08-19T11:57:42.227Z,7.78
2022-08-19T12:00:10.809Z,6.47
2022-08-19T12:02:37.465Z,7.65
2022-08-19T12:05:06.937Z,6.88
2022-08-19T12:07:35.819Z,6.05
2022-08-19T12:10:02.464Z,6.20
2022-08-19T12:12:30.353Z,6.07
2022-08-19T12:14:59.332Z,7.13
2022-08-19T12:17:27.437Z,6.70
2022-08-19T12:19:54.671Z,6.22
2022-08-19T12:22:21.815Z,6.82
2022-08-19T12:24:51.206Z,6.40
2022-08-19T12:27:32.037Z,6.20
2022-08-19T12:30:07.270Z,6.00
2022-08-19T12:32:34.883Z,7.15
2022-08-19T12:35:02.212Z,6.35
2022-08-19T12:37:28.952Z,6.95
2022-08-19T12:39:55.641Z,6.63
2022-08-19T12:42:23.769Z,6.55
2022-08-19T12:44:52.925Z,6.63
2022-08-19T12:47:19.742Z,5.93
2022-08-19T12:49:53.094Z,5.70
2022-08-19T12:52:23.247Z,5.60
2022-08-19T12:54:54.163Z,5.88
2022-08-19T12:57:24.380Z,4.70
2022-08-19T12:59:59.049Z,4.80
2022-08-19T13:02:25.700Z,4.05
2022-08-19T13:04:52.334Z,4.10
2022-08-19T13:07:19.027Z,4.72
2022-08-19T13:09:45.811Z,5.00
2022-08-19T13:12:14.120Z,4.93
2022-08-19T13:14:41.533Z,5.05
2022-08-19T13:17:09.371Z,5.22
2022-08-19T13:19:37.811Z,4.45
2022-08-19T13:22:04.532Z,4.55
2022-08-19T13:24:41.969Z,4.47
2022-08-19T13:27:11.991Z,4.82
2022-08-19T13:29:59.843Z,4.70
2022-08-19T13:32:44.998Z,4.10
2022-08-19T13:35:16.235Z,4.22
2022-08-19T13:37:43.867Z,4.20
2022-08-19T13:40:16.679Z,5.22
2022-08-19T13:42:44.869Z,4.80
2022-08-19T13:45:12.714Z,5.00
2022-08-19T13:47:45.957Z,5.50
2022-08-19T13:50:14.544Z,5.45
2022-08-19T13:52:41.696Z,5.30
2022-08-19T13:55:09.666Z,5.50
2022-08-19T13:57:39.531Z,5.90
2022-08-19T14:00:13.547Z,5.82
2022-08-19T14:02:41.214Z,5.70
2022-08-19T14:05:10.482Z,5.95
2022-08-19T14:07:37.421Z,5.55
2022-08-19T14:10:05.982Z,5.53
2022-08-19T14:12:33.260Z,5.40
2022-08-19T14:15:00.777Z,6.22
2022-08-19T14:17:27.389Z,6.47
2022-08-19T14:19:58.624Z,6.93
2022-08-19T14:22:30.080Z,7.00
2022-08-19T14:24:57.998Z,6.03
2022-08-19T14:27:26.267Z,5.60
2022-08-19T14:29:53.725Z,4.82
2022-08-19T14:32:20.573Z,5.22
2022-08-19T14:34:47.778Z,5.18
2022-08-19T14:37:15.717Z,5.10
2022-08-19T14:39:43.136Z,4.28
2022-08-19T14:42:11.472Z,4.43
2022-08-19T14:44:39.157Z,5.28
2022-08-19T14:47:08.059Z,4.80
2022-08-19T14:49:43.058Z,4.10
2022-08-19T14:52:12.841Z,4.35
2022-08-19T14:54:53.146Z,4.53
2022-08-19T14:57:21.639Z,4.07
2022-08-19T14:59:50.976Z,3.72
2022-08-19T15:02:34.494Z,3.95
2022-08-19T15:05:01.987Z,3.97
2022-08-19T15:07:30.476Z,4.10
2022-08-19T15:09:57.811Z,4.22
2022-08-19T15:12:25.204Z,4.40
2022-08-19T15:14:56.002Z,4.57
2022-08-19T15:17:41.476Z,4.68
2022-08-19T15:20:12.225Z,4.85
2022-08-19T15:22:39.274Z,5.15
2022-08-19T15:25:08.272Z,4.50
2022-08-19T15:27:35.660Z,4.38
2022-08-19T15:30:02.825Z,4.40
2022-08-19T15:32:30.447Z,4.35
2022-08-19T15:34:57.248Z,4.60
2022-08-19T15:37:24.465Z,4.72
2022-08-19T15:39:51.519Z,4.97
2022-08-19T15:42:22.564Z,5.55
2022-08-19T15:45:00.735Z,5.35
2022-08-19T15:47:35.163Z,5.07
2022-08-19T15:50:29.064Z,6.00
2022-08-19T15:52:58.578Z,6.05
2022-08-19T15:55:34.535Z,6.13
2022-08-19T15:58:28.793Z,6.88
2022-08-19T16:01:27.255Z,6.65
2022-08-19T16:04:15.710Z,7.57
2022-08-19T16:06:46.647Z,7.38
2022-08-19T16:09:15.399Z,9.00
2022-08-19T16:11:46.466Z,7.93
2022-08-19T16:14:18.682Z,8.02
2022-08-19T16:16:47.347Z,8.45
2022-08-19T16:19:16.250Z,8.32
2022-08-19T16:21:45.537Z,8.88
2022-08-19T16:24:14.281Z,8.82
2022-08-19T16:26:42.431Z,8.32
2022-08-19T16:29:12.095Z,9.68
2022-08-19T16:31:41.961Z,9.27
2022-08-19T16:34:08.645Z,9.02
2022-08-19T16:36:35.390Z,8.98
2022-08-19T16:39:03.751Z,8.15
2022-08-19T16:41:30.390Z,7.45
2022-08-19T16:43:57.193Z,7.68
2022-08-19T16:46:24.639Z,8.00
2022-08-19T16:48:54.257Z,8.55
2022-08-19T16:51:22.873Z,9.05
2022-08-19T16:53:53.144Z,9.25
2022-08-19T16:56:28.530Z,8.43
2022-08-19T16:58:56.083Z,8.07
2022-08-19T17:01:22.842Z,7.13
2022-08-19T17:03:52.727Z,7.60
2022-08-19T17:06:24.601Z,8.52
2022-08-19T17:08:55.445Z,8.50
2022-08-19T17:11:24.380Z,8.05
2022-08-19T17:13:51.247Z,9.13
2022-08-19T17:16:20.059Z,8.95
2022-08-19T17:18:46.820Z,8.68
2022-08-19T17:21:13.631Z,8.90
2022-08-19T17:23:44.175Z,9.30
2022-08-19T17:26:17.957Z,8.05
2022-08-19T17:28:46.377Z,8.15
2022-08-19T17:31:13.172Z,7.82
2022-08-19T17:33:41.358Z,7.80
2022-08-19T17:36:11.914Z,7.88
2022-08-19T17:38:47.569Z,7.95
2022-08-19T17:41:15.686Z,8.15
2022-08-19T17:43:43.753Z,9.00
2022-08-19T17:46:18.247Z,10.13
2022-08-19T17:48:51.893Z,10.15
2022-08-19T17:51:35.827Z,9.80
2022-08-19T17:54:09.077Z,10.00
2022-08-19T17:56:43.316Z,10.00
2022-08-19T17:59:13.926Z,10.45
2022-08-19T18:01:53.558Z,10.77
2022-08-19T18:04:23.051Z,10.90
2022-08-19T18:06:53.119Z,10.52
2022-08-19T18:09:41.203Z,10.95
2022-08-19T18:12:09.751Z,11.25
2022-08-19T18:14:39.395Z,10.60
2022-08-19T18:17:09.777Z,10.50
2022-08-19T18:19:41.525Z,9.80
2022-08-19T18:22:22.716Z,9.23
2022-08-19T18:24:50.821Z,8.68
2022-08-19T18:27:17.537Z,9.02
2022-08-19T18:29:45.044Z,7.78
2022-08-19T18:32:15.100Z,6.97
2022-08-19T18:34:43.017Z,6.72
2022-08-19T18:37:10.445Z,6.20
2022-08-19T18:39:55.944Z,6.15
2022-08-19T18:42:41.588Z,5.97
2022-08-19T18:45:28.350Z,6.05
2022-08-19T18:48:27.131Z,6.43
2022-08-19T18:50:56.642Z,7.22
2022-08-19T18:53:23.497Z,6.43
2022-08-19T18:55:52.022Z,7.07
2022-08-19T18:58:19.645Z,6.13
2022-08-19T19:00:48.723Z,6.00
2022-08-19T19:03:15.633Z,6.25
2022-08-19T19:05:44.433Z,5.88
2022-08-19T19:08:13.675Z,5.88
2022-08-19T19:10:42.355Z,6.65
2022-08-19T19:13:09.149Z,5.93
2022-08-19T19:15:37.128Z,5.57
2022-08-19T19:18:03.984Z,5.30
2022-08-19T19:20:36.402Z,5.30
2022-08-19T19:23:04.208Z,5.63
2022-08-19T19:25:44.799Z,5.13
2022-08-19T19:28:24.086Z,6.55
2022-08-19T19:30:53.306Z,6.10
2022-08-19T19:33:20.582Z,6.18
2022-08-19T19:35:49.329Z,6.82
2022-08-19T19:38:19.307Z,6.95
2022-08-19T19:44:30.713Z,6.95
2022-08-19T19:47:09.717Z,6.53
2022-08-19T19:53:08.726Z,7.03
2022-08-19T19:56:21.594Z,6.85
2022-08-19T20:02:06.600Z,6.97
2022-08-19T20:04:40.501Z,7.40
2022-08-19T20:07:18.885Z,7.97
2022-08-19T20:13:39.897Z,8.23
2022-08-19T20:16:43.510Z,8.30
2022-08-19T20:19:15.252Z,8.88
2022-08-19T20:22:08.964Z,8.27
2022-08-19T20:24:45.001Z,8.38
2022-08-19T20:27:31.102Z,8.32
2022-08-19T20:30:25.626Z,7.70
2022-08-19T20:32:58.341Z,8.40
2022-08-19T20:35:54.018Z,8.27
2022-08-19T20:38:23.190Z,8.15
2022-08-19T20:44:11.739Z,8.38
2022-08-19T20:46:55.378Z,8.73
2022-08-19T20:49:35.861Z,9.15
2022-08-19T20:52:14.712Z,8.98
2022-08-19T20:54:47.525Z,8.43
2022-08-19T20:57:45.038Z,9.70
2022-08-19T21:00:42.919Z,8.68
2022-08-19T21:06:33.795Z,9.40
2022-08-19T21:09:16.387Z,9.70
2022-08-19T21:11:45.961Z,10.00
2022-08-19T21:14:28.335Z,9.60
2022-08-19T21:17:05.323Z,9.57
2022-08-19T21:20:01.809Z,9.52
2022-08-19T21:22:40.189Z,9.75
2022-08-19T21:25:15.981Z,11.20
2022-08-19T21:28:47.102Z,10.98
2022-08-19T21:34:21.849Z,11.68
2022-08-19T21:36:51.711Z,11.18
2022-08-19T21:39:26.564Z,12.27
2022-08-19T21:42:04.466Z,11.70
2022-08-19T21:45:36.174Z,11.32
2022-08-19T21:48:15.957Z,12.13
2022-08-19T21:50:43.621Z,12.37
2022-08-19T21:53:17.541Z,12.20
2022-08-19T21:55:44.573Z,13.27
2022-08-19T21:58:11.895Z,13.93
2022-08-19T22:00:39.804Z,14.38
2022-08-19T22:03:06.600Z,14.27
2022-08-19T22:05:33.997Z,14.43
2022-08-19T22:08:02.023Z,13.57
2022-08-19T22:10:31.384Z,13.30
2022-08-19T22:12:58.200Z,13.77
2022-08-19T22:15:29.280Z,14.00
2022-08-19T22:17:59.594Z,14.90
2022-08-19T22:20:28.710Z,13.27
2022-08-19T22:23:01.951Z,13.90
2022-08-19T22:25:32.270Z,13.23
2022-08-19T22:28:01.772Z,12.83
2022-08-19T22:30:32.408Z,12.60
2022-08-19T22:33:02.325Z,11.50
2022-08-19T22:35:31.646Z,11.37
2022-08-19T22:37:59.235Z,8.03
2022-08-19T22:40:28.359Z,6.63
2022-08-19T22:43:03.566Z,6.63
2022-08-19T22:45:30.616Z,6.63
2022-08-19T22:47:57.891Z,6.90
2022-08-19T22:50:24.689Z,7.43
2022-08-19T22:53:02.728Z,7.57
2022-08-19T22:55:32.428Z,8.03
2022-08-19T22:58:01.608Z,8.80
2022-08-19T23:00:29.054Z,7.63
2022-08-19T23:02:57.465Z,8.43
2022-08-19T23:05:27.089Z,9.00
2022-08-19T23:07:54.622Z,9.47
2022-08-19T23:10:27.080Z,10.07
2022-08-19T23:12:56.514Z,9.93
2022-08-19T23:15:26.017Z,9.35
2022-08-19T23:17:54.682Z,10.80
2022-08-19T23:20:23.381Z,11.20
2022-08-19T23:22:51.006Z,10.90
2022-08-19T23:25:20.421Z,11.17
2022-08-19T23:28:06.619Z,11.20
2022-08-19T23:30:35.569Z,10.90
2022-08-19T23:33:11.018Z,11.80
2022-08-19T23:35:40.799Z,11.23
2022-08-19T23:38:08.620Z,12.37
2022-08-19T23:40:37.081Z,12.00
2022-08-19T23:43:07.924Z,12.17
2022-08-19T23:45:38.343Z,11.87
2022-08-19T23:48:06.618Z,11.93
2022-08-19T23:50:34.385Z,11.33
2022-08-19T23:53:02.214Z,12.67
2022-08-19T23:55:32.682Z,11.87
2022-08-19T23:57:59.908Z,11.33
